SCFO weather

La Reforma Airport
Pelarco, Maule Region, Chile

Public forecast

Using degrees Celsius for public forecast. Weather courtesy of forecast.io.

Closest aviation weather report (METAR) to La Reforma Airport

Closest report is General Freire Airport, 29.7 nm (55.0 km) N. Retrieved 2020/06/01 16:00 UTC (51 minutes ago):

SCIC 011600Z VRB02KT 4000 HZ NSC 11/07 Q1024

Closest aviation forecast (TAF) to La Reforma Airport

Closest forecast is Carriel Sur Airport, 117.0 nm (216.8 km) SW. Retrieved 2020/06/01 12:00 UTC (5 hours ago):

TAF SCIE 011039Z 0112/0212 15004KT CAVOK TX13/0119Z TN06/0210Z BECMG 0115/0117 20008KT BECMG 0201/0203 01004KT FEW030 BECMG 0204/0206 SCT030 BKN100